Rickmers Dalian — V7FS3 — position and weather

sailwx.info

Track history (hours):
 
Tides and Currents Weather Stations Pressure Air Temp Water Temp Dewpoint Dewpoint Depression Visibility Wind Speed Wind Dir Waves Ship Positions

Rickmers Dalian

Last reported at 2014-Oct-31 15:19 UTC. Time now 2014-Oct-31 21:26 UTC.
Position N 36°01' W 005°07'.

Length 193 m; beam 27.8 m; draft 11.2 m.

Type: Ship. MMSI: 538090156.

Date/timePositionNaut miles runAvg speedWind from/ knotsBaromVisibWave heightAir tempDewpointWater temp
2014-Oct-31 15:19N 36°01' W 005°07'1114.6
2014-Oct-31 14:33N 35°58' W 005°21'20112.5
2014-Oct-30 22:33N 36°40' W 009°24'1312.9
2014-Oct-30 21:33N 36°50' W 009°34'1313.0
2014-Oct-30 20:34N 37°03' W 009°38'1312.7
2014-Oct-30 19:33N 37°15' W 009°42'1212.5
2014-Oct-30 18:33N 37°27' W 009°45'1312.6
2014-Oct-30 17:32N 37°40' W 009°49'2913.1
2014-Oct-30 15:21N 38°07' W 009°57'38511.6
2014-Oct-29 06:13N 43°48' W 006°00'913.6
2014-Oct-29 05:34N 43°47' W 005°48'1413.6
2014-Oct-29 04:31N 43°46' W 005°29'1313.8
2014-Oct-29 03:33N 43°45' W 005°10'1414.1
2014-Oct-29 02:32N 43°45' W 004°50'3 6.0
2014-Oct-29 02:00N 43°42' W 004°48'1227.8 090 / 81013.5 5.4 0.519.018.219.0
2014-Oct-29 01:33N 43°44' W 004°31'1614.2
2014-Oct-29 00:25N 43°43' W 004°09'1513.9
2014-Oct-28 23:19N 43°42' W 003°48'1013.8
2014-Oct-28 22:33N 43°41' W 003°33'1413.7
2014-Oct-28 21:33N 43°32' W 003°19'1414.0
2014-Oct-28 20:33N 43°23' W 003°05'3 2.9
2014-Oct-28 19:32N 43°20' W 003°02'0 0.0
2014-Oct-28 18:32N 43°20' W 003°02'0 0.0
2014-Oct-28 17:32N 43°20' W 003°02'0 0.0
2014-Oct-28 16:32N 43°20' W 003°02'0 0.0
2014-Oct-28 15:32N 43°20' W 003°02'0 0.0
2014-Oct-28 14:32N 43°20' W 003°02'0 0.0
2014-Oct-28 13:32N 43°20' W 003°02'0 0.0
2014-Oct-28 12:32N 43°20' W 003°02'0 0.0
2014-Oct-28 11:32N 43°20' W 003°02'0 0.0
2014-Oct-28 10:32N 43°20' W 003°02'0 0.0
2014-Oct-28 09:29N 43°20' W 003°02'0 0.0
2014-Oct-28 08:32N 43°20' W 003°02'0 0.0
2014-Oct-28 07:32N 43°20' W 003°02'0 0.0
2014-Oct-28 06:32N 43°20' W 003°02'0 0.0
2014-Oct-28 05:32N 43°20' W 003°02'1 0.9
2014-Oct-28 04:33N 43°21' W 003°02'8 7.6
2014-Oct-28 03:33N 43°27' W 003°08'9 9.3
2014-Oct-28 02:33N 43°36' W 003°12'10 9.7
2014-Oct-28 01:33N 43°45' W 003°17'10 9.9
2014-Oct-28 00:33N 43°54' W 003°22'3 5.4
2014-Oct-28 00:00N 43°54' W 003°18'1227.1 180 / 121014.0 5.4 1.020.018.420.0
2014-Oct-27 23:33N 44°04' W 003°27'1410.2
2014-Oct-27 22:11N 44°17' W 003°34'4110.4
2014-Oct-27 18:15N 44°55' W 003°56'810.8
2014-Oct-27 17:33N 45°02' W 003°59'1111.1
2014-Oct-27 16:33N 45°12' W 004°05'1110.9
2014-Oct-27 15:33N 45°22' W 004°11'2210.5
2014-Oct-27 13:25N 45°43' W 004°22'4110.3
2014-Oct-27 09:27N 46°21' W 004°44'11 9.6
2014-Oct-27 08:17N 46°32' W 004°49'1210.4
2014-Oct-27 07:06N 46°43' W 004°57'3714.5
2014-Oct-27 04:33N 47°17' W 005°16'1413.9
2014-Oct-27 03:33N 47°30' W 005°23'1313.0
2014-Oct-27 02:34N 47°42' W 005°30'14511.1
2014-Oct-26 13:33N 49°45' W 003°35'1616.2
2014-Oct-26 12:32N 49°54' W 003°13'1515.2
2014-Oct-26 11:33N 50°01' W 002°53'1413.8
2014-Oct-26 10:31N 50°04' W 002°31'1111.9
2014-Oct-26 09:34N 50°07' W 002°14'1111.1
2014-Oct-26 08:34N 50°10' W 001°57'2612.1
2014-Oct-26 06:24N 50°17' W 001°18'1515.4
2014-Oct-26 05:26N 50°21' W 000°55'1816.6
2014-Oct-26 04:23N 50°25' W 000°29'1416.3
2014-Oct-26 03:33N 50°29' W 000°08'1615.7
2014-Oct-26 02:31N 50°34' E 000°16'1414.9
2014-Oct-26 01:33N 50°38' E 000°38'1413.8
2014-Oct-26 00:33N 50°47' E 000°55'1313.1
2014-Oct-25 23:33N 50°55' E 001°10'1313.5
2014-Oct-25 22:33N 51°04' E 001°27'1615.8
2014-Oct-25 21:33N 51°14' E 001°46'1716.7
2014-Oct-25 20:34N 51°28' E 002°00'1615.9
2014-Oct-25 19:33N 51°40' E 002°17'12713.9
2014-Oct-25 10:25N 53°19' E 004°30'715.3
2014-Oct-25 10:00N 53°24' E 004°36'613.1 280 / 151016.010.8 0.516.014.616.0
2014-Oct-25 09:33N 53°29' E 004°40'1414.0
2014-Oct-25 08:33N 53°34' E 005°02'1313.3
2014-Oct-25 07:33N 53°38' E 005°23'1211.9
2014-Oct-25 06:33N 53°42' E 005°42'1212.2
2014-Oct-25 05:33N 53°46' E 006°02'5313.0
2014-Oct-25 01:30N 53°60' E 007°28'1212.3
2014-Oct-25 00:33N 54°02' E 007°48'1212.4
2014-Oct-24 23:33N 54°01' E 008°09'1312.7
2014-Oct-24 22:33N 53°59' E 008°30'1211.7
2014-Oct-24 21:33N 53°51' E 008°45'1413.7
2014-Oct-24 20:33N 53°53' E 009°09'1412.7
2014-Oct-24 19:25N 53°44' E 009°27'1112.3
2014-Oct-24 18:33N 53°35' E 009°37'10 9.8
2014-Oct-24 17:33N 53°33' E 009°53'5 4.0
2014-Oct-24 16:24N 53°29' E 009°59'0 0.0
2014-Oct-24 15:31N 53°29' E 009°59'0 0.0
2014-Oct-24 14:33N 53°29' E 009°59'0 0.0
2014-Oct-24 13:31N 53°29' E 009°59'0 0.0
2014-Oct-24 12:31N 53°29' E 009°59'0 0.0
2014-Oct-24 11:33N 53°29' E 009°59'0 0.0
2014-Oct-24 10:31N 53°29' E 009°59'0 0.0
2014-Oct-24 09:31N 53°29' E 009°59'0 0.0
2014-Oct-24 08:24N 53°29' E 009°59'0 0.0
2014-Oct-24 07:32N 53°29' E 009°59'0 0.0
2014-Oct-24 06:26N 53°29' E 009°59'0 0.0
2014-Oct-24 05:32N 53°29' E 009°59'0 0.0
2014-Oct-24 04:32N 53°29' E 009°59'0 0.0
2014-Oct-24 03:32N 53°29' E 009°59'0 0.0
2014-Oct-24 02:32N 53°29' E 009°59'0 0.0
2014-Oct-24 01:32N 53°29' E 009°59'0 0.0
2014-Oct-24 00:32N 53°29' E 009°59'0 0.0
2014-Oct-23 23:32N 53°29' E 009°59'0 0.0
2014-Oct-23 22:32N 53°29' E 009°59'0 0.0
2014-Oct-23 21:23N 53°29' E 009°59'0 0.0
2014-Oct-23 20:32N 53°29' E 009°59'0 0.0
2014-Oct-23 19:32N 53°29' E 009°59'0 0.0
2014-Oct-23 18:26N 53°29' E 009°59'0 0.0
2014-Oct-23 17:32N 53°29' E 009°59'0 0.0
2014-Oct-23 16:32N 53°29' E 009°59'0 0.0
2014-Oct-23 15:26N 53°29' E 009°59'0 0.0
2014-Oct-23 14:32N 53°29' E 009°59'0 0.0
2014-Oct-23 13:33N 53°29' E 009°59'0 0.0
2014-Oct-23 12:33N 53°29' E 009°59'0 0.0
2014-Oct-23 11:26N 53°29' E 009°59'0 0.0
2014-Oct-23 10:33N 53°29' E 009°59'0 0.0
2014-Oct-23 09:32N 53°29' E 009°59'0 0.0
2014-Oct-23 08:32N 53°29' E 009°59'0 0.0
2014-Oct-23 07:29N 53°29' E 009°59'0 0.0
2014-Oct-23 06:32N 53°29' E 009°59'0 0.0
2014-Oct-23 05:32N 53°29' E 009°59'0 0.0
2014-Oct-23 04:32N 53°29' E 009°59'0 0.0
2014-Oct-23 03:32N 53°29' E 009°59'0 0.0
2014-Oct-23 02:32N 53°29' E 009°59'0 0.0
2014-Oct-23 01:32N 53°29' E 009°59'0 0.0
2014-Oct-23 00:29N 53°29' E 009°59'0 0.0
2014-Oct-22 23:29N 53°29' E 009°59'0 0.0
2014-Oct-22 22:32N 53°29' E 009°59'0 0.0
2014-Oct-22 21:32N 53°29' E 009°59'0 0.0
2014-Oct-22 20:32N 53°29' E 009°59'0 0.0
2014-Oct-22 19:31N 53°29' E 009°59'0 0.0
2014-Oct-22 18:31N 53°29' E 009°59'0 0.0
2014-Oct-22 17:28N 53°29' E 009°59'0 0.0
2014-Oct-22 16:31N 53°29' E 009°59'0 0.0
2014-Oct-22 15:31N 53°29' E 009°59'0 0.0
2014-Oct-22 14:28N 53°29' E 009°59'0 0.0
2014-Oct-22 13:31N 53°29' E 009°59'0 0.0
2014-Oct-22 12:32N 53°29' E 009°59'0 0.0
2014-Oct-22 11:31N 53°29' E 009°59'0 0.0
2014-Oct-22 10:28N 53°29' E 009°59'0 0.0
2014-Oct-22 09:31N 53°29' E 009°59'0 0.0
2014-Oct-22 08:31N 53°29' E 009°59'0 0.0
2014-Oct-22 07:32N 53°29' E 009°59'0 0.0
2014-Oct-22 06:25N 53°29' E 009°59'0 0.0
2014-Oct-22 05:25N 53°29' E 009°59'0 0.0
2014-Oct-22 04:28N 53°29' E 009°59'0 0.0
2014-Oct-22 03:31N 53°29' E 009°59'0 0.1
2014-Oct-22 02:33N 53°29' E 009°59'3 3.0
2014-Oct-22 01:34N 53°32' E 009°56'1010.0
2014-Oct-22 00:33N 53°34' E 009°40'1211.7
2014-Oct-21 23:33N 53°43' E 009°28'1413.9
2014-Oct-21 22:33N 53°53' E 009°11'1312.7
2014-Oct-21 21:33N 53°50' E 008°49'1413.7
2014-Oct-21 20:33N 53°58' E 008°31'1414.0
2014-Oct-21 19:33N 53°59' E 008°07'1616.1
2014-Oct-21 18:33N 53°56' E 007°40'1917.0
2014-Oct-21 17:27N 53°51' E 007°09'1617.0
2014-Oct-21 16:29N 53°48' E 006°42'1616.8
2014-Oct-21 15:31N 53°44' E 006°15'  
Track history (hours):
 
Tides and Currents Weather Stations Pressure Air Temp Water Temp Dewpoint Dewpoint Depression Visibility Wind Speed Wind Dir Waves Ship Positions

Rickmers Dalian

Last reported at 2014-Oct-31 15:19 UTC. Time now 2014-Oct-31 21:26 UTC.
Position N 36°01' W 005°07'.

Length 193 m; beam 27.8 m; draft 11.2 m.

Type: Ship. MMSI: 538090156.

Date/timePositionNaut miles runAvg speedWind from/ knotsBaromVisibWave heightAir tempDewpointWater temp
2014-Oct-31 15:19N 36°01' W 005°07'1114.6
2014-Oct-31 14:33N 35°58' W 005°21'20112.5
2014-Oct-30 22:33N 36°40' W 009°24'1312.9
2014-Oct-30 21:33N 36°50' W 009°34'1313.0
2014-Oct-30 20:34N 37°03' W 009°38'1312.7
2014-Oct-30 19:33N 37°15' W 009°42'1212.5
2014-Oct-30 18:33N 37°27' W 009°45'1312.6
2014-Oct-30 17:32N 37°40' W 009°49'2913.1
2014-Oct-30 15:21N 38°07' W 009°57'38511.6
2014-Oct-29 06:13N 43°48' W 006°00'913.6
2014-Oct-29 05:34N 43°47' W 005°48'1413.6
2014-Oct-29 04:31N 43°46' W 005°29'1313.8
2014-Oct-29 03:33N 43°45' W 005°10'1414.1
2014-Oct-29 02:32N 43°45' W 004°50'3 6.0
2014-Oct-29 02:00N 43°42' W 004°48'1227.8 090 / 81013.5 5.4 0.519.018.219.0
2014-Oct-29 01:33N 43°44' W 004°31'1614.2
2014-Oct-29 00:25N 43°43' W 004°09'1513.9
2014-Oct-28 23:19N 43°42' W 003°48'1013.8
2014-Oct-28 22:33N 43°41' W 003°33'1413.7
2014-Oct-28 21:33N 43°32' W 003°19'1414.0
2014-Oct-28 20:33N 43°23' W 003°05'3 2.9
2014-Oct-28 19:32N 43°20' W 003°02'0 0.0
2014-Oct-28 18:32N 43°20' W 003°02'0 0.0
2014-Oct-28 17:32N 43°20' W 003°02'0 0.0
2014-Oct-28 16:32N 43°20' W 003°02'0 0.0
2014-Oct-28 15:32N 43°20' W 003°02'0 0.0
2014-Oct-28 14:32N 43°20' W 003°02'0 0.0
2014-Oct-28 13:32N 43°20' W 003°02'0 0.0
2014-Oct-28 12:32N 43°20' W 003°02'0 0.0
2014-Oct-28 11:32N 43°20' W 003°02'0 0.0
2014-Oct-28 10:32N 43°20' W 003°02'0 0.0
2014-Oct-28 09:29N 43°20' W 003°02'0 0.0
2014-Oct-28 08:32N 43°20' W 003°02'0 0.0
2014-Oct-28 07:32N 43°20' W 003°02'0 0.0
2014-Oct-28 06:32N 43°20' W 003°02'0 0.0
2014-Oct-28 05:32N 43°20' W 003°02'1 0.9
2014-Oct-28 04:33N 43°21' W 003°02'8 7.6
2014-Oct-28 03:33N 43°27' W 003°08'9 9.3
2014-Oct-28 02:33N 43°36' W 003°12'10 9.7
2014-Oct-28 01:33N 43°45' W 003°17'10 9.9
2014-Oct-28 00:33N 43°54' W 003°22'3 5.4
2014-Oct-28 00:00N 43°54' W 003°18'1227.1 180 / 121014.0 5.4 1.020.018.420.0
2014-Oct-27 23:33N 44°04' W 003°27'1410.2
2014-Oct-27 22:11N 44°17' W 003°34'4110.4
2014-Oct-27 18:15N 44°55' W 003°56'810.8
2014-Oct-27 17:33N 45°02' W 003°59'1111.1
2014-Oct-27 16:33N 45°12' W 004°05'1110.9
2014-Oct-27 15:33N 45°22' W 004°11'2210.5
2014-Oct-27 13:25N 45°43' W 004°22'4110.3
2014-Oct-27 09:27N 46°21' W 004°44'11 9.6
2014-Oct-27 08:17N 46°32' W 004°49'1210.4
2014-Oct-27 07:06N 46°43' W 004°57'3714.5
2014-Oct-27 04:33N 47°17' W 005°16'1413.9
2014-Oct-27 03:33N 47°30' W 005°23'1313.0
2014-Oct-27 02:34N 47°42' W 005°30'14511.1
2014-Oct-26 13:33N 49°45' W 003°35'1616.2
2014-Oct-26 12:32N 49°54' W 003°13'1515.2
2014-Oct-26 11:33N 50°01' W 002°53'1413.8
2014-Oct-26 10:31N 50°04' W 002°31'1111.9
2014-Oct-26 09:34N 50°07' W 002°14'1111.1
2014-Oct-26 08:34N 50°10' W 001°57'2612.1
2014-Oct-26 06:24N 50°17' W 001°18'1515.4
2014-Oct-26 05:26N 50°21' W 000°55'1816.6
2014-Oct-26 04:23N 50°25' W 000°29'1416.3
2014-Oct-26 03:33N 50°29' W 000°08'1615.7
2014-Oct-26 02:31N 50°34' E 000°16'1414.9
2014-Oct-26 01:33N 50°38' E 000°38'1413.8
2014-Oct-26 00:33N 50°47' E 000°55'1313.1
2014-Oct-25 23:33N 50°55' E 001°10'1313.5
2014-Oct-25 22:33N 51°04' E 001°27'1615.8
2014-Oct-25 21:33N 51°14' E 001°46'1716.7
2014-Oct-25 20:34N 51°28' E 002°00'1615.9
2014-Oct-25 19:33N 51°40' E 002°17'12713.9
2014-Oct-25 10:25N 53°19' E 004°30'715.3
2014-Oct-25 10:00N 53°24' E 004°36'613.1 280 / 151016.010.8 0.516.014.616.0
2014-Oct-25 09:33N 53°29' E 004°40'1414.0
2014-Oct-25 08:33N 53°34' E 005°02'1313.3
2014-Oct-25 07:33N 53°38' E 005°23'1211.9
2014-Oct-25 06:33N 53°42' E 005°42'1212.2
2014-Oct-25 05:33N 53°46' E 006°02'5313.0
2014-Oct-25 01:30N 53°60' E 007°28'1212.3
2014-Oct-25 00:33N 54°02' E 007°48'1212.4
2014-Oct-24 23:33N 54°01' E 008°09'1312.7
2014-Oct-24 22:33N 53°59' E 008°30'1211.7
2014-Oct-24 21:33N 53°51' E 008°45'1413.7
2014-Oct-24 20:33N 53°53' E 009°09'1412.7
2014-Oct-24 19:25N 53°44' E 009°27'1112.3
2014-Oct-24 18:33N 53°35' E 009°37'10 9.8
2014-Oct-24 17:33N 53°33' E 009°53'5 4.0
2014-Oct-24 16:24N 53°29' E 009°59'0 0.0
2014-Oct-24 15:31N 53°29' E 009°59'0 0.0
2014-Oct-24 14:33N 53°29' E 009°59'0 0.0
2014-Oct-24 13:31N 53°29' E 009°59'0 0.0
2014-Oct-24 12:31N 53°29' E 009°59'0 0.0
2014-Oct-24 11:33N 53°29' E 009°59'0 0.0
2014-Oct-24 10:31N 53°29' E 009°59'0 0.0
2014-Oct-24 09:31N 53°29' E 009°59'0 0.0
2014-Oct-24 08:24N 53°29' E 009°59'0 0.0
2014-Oct-24 07:32N 53°29' E 009°59'0 0.0
2014-Oct-24 06:26N 53°29' E 009°59'0 0.0
2014-Oct-24 05:32N 53°29' E 009°59'0 0.0
2014-Oct-24 04:32N 53°29' E 009°59'0 0.0
2014-Oct-24 03:32N 53°29' E 009°59'0 0.0
2014-Oct-24 02:32N 53°29' E 009°59'0 0.0
2014-Oct-24 01:32N 53°29' E 009°59'0 0.0
2014-Oct-24 00:32N 53°29' E 009°59'0 0.0
2014-Oct-23 23:32N 53°29' E 009°59'0 0.0
2014-Oct-23 22:32N 53°29' E 009°59'0 0.0
2014-Oct-23 21:23N 53°29' E 009°59'0 0.0
2014-Oct-23 20:32N 53°29' E 009°59'0 0.0
2014-Oct-23 19:32N 53°29' E 009°59'0 0.0
2014-Oct-23 18:26N 53°29' E 009°59'0 0.0
2014-Oct-23 17:32N 53°29' E 009°59'0 0.0
2014-Oct-23 16:32N 53°29' E 009°59'0 0.0
2014-Oct-23 15:26N 53°29' E 009°59'0 0.0
2014-Oct-23 14:32N 53°29' E 009°59'0 0.0
2014-Oct-23 13:33N 53°29' E 009°59'0 0.0
2014-Oct-23 12:33N 53°29' E 009°59'0 0.0
2014-Oct-23 11:26N 53°29' E 009°59'0 0.0
2014-Oct-23 10:33N 53°29' E 009°59'0 0.0
2014-Oct-23 09:32N 53°29' E 009°59'0 0.0
2014-Oct-23 08:32N 53°29' E 009°59'0 0.0
2014-Oct-23 07:29N 53°29' E 009°59'0 0.0
2014-Oct-23 06:32N 53°29' E 009°59'0 0.0
2014-Oct-23 05:32N 53°29' E 009°59'0 0.0
2014-Oct-23 04:32N 53°29' E 009°59'0 0.0
2014-Oct-23 03:32N 53°29' E 009°59'0 0.0
2014-Oct-23 02:32N 53°29' E 009°59'0 0.0
2014-Oct-23 01:32N 53°29' E 009°59'0 0.0
2014-Oct-23 00:29N 53°29' E 009°59'0 0.0
2014-Oct-22 23:29N 53°29' E 009°59'0 0.0
2014-Oct-22 22:32N 53°29' E 009°59'0 0.0
2014-Oct-22 21:32N 53°29' E 009°59'0 0.0
2014-Oct-22 20:32N 53°29' E 009°59'0 0.0
2014-Oct-22 19:31N 53°29' E 009°59'0 0.0
2014-Oct-22 18:31N 53°29' E 009°59'0 0.0
2014-Oct-22 17:28N 53°29' E 009°59'0 0.0
2014-Oct-22 16:31N 53°29' E 009°59'0 0.0
2014-Oct-22 15:31N 53°29' E 009°59'0 0.0
2014-Oct-22 14:28N 53°29' E 009°59'0 0.0
2014-Oct-22 13:31N 53°29' E 009°59'0 0.0
2014-Oct-22 12:32N 53°29' E 009°59'0 0.0
2014-Oct-22 11:31N 53°29' E 009°59'0 0.0
2014-Oct-22 10:28N 53°29' E 009°59'0 0.0
2014-Oct-22 09:31N 53°29' E 009°59'0 0.0
2014-Oct-22 08:31N 53°29' E 009°59'0 0.0
2014-Oct-22 07:32N 53°29' E 009°59'0 0.0
2014-Oct-22 06:25N 53°29' E 009°59'0 0.0
2014-Oct-22 05:25N 53°29' E 009°59'0 0.0
2014-Oct-22 04:28N 53°29' E 009°59'0 0.0
2014-Oct-22 03:31N 53°29' E 009°59'0 0.1
2014-Oct-22 02:33N 53°29' E 009°59'3 3.0
2014-Oct-22 01:34N 53°32' E 009°56'1010.0
2014-Oct-22 00:33N 53°34' E 009°40'1211.7
2014-Oct-21 23:33N 53°43' E 009°28'1413.9
2014-Oct-21 22:33N 53°53' E 009°11'1312.7
2014-Oct-21 21:33N 53°50' E 008°49'1413.7
2014-Oct-21 20:33N 53°58' E 008°31'1414.0
2014-Oct-21 19:33N 53°59' E 008°07'1616.1
2014-Oct-21 18:33N 53°56' E 007°40'1917.0
2014-Oct-21 17:27N 53°51' E 007°09'1617.0
2014-Oct-21 16:29N 53°48' E 006°42'1616.8
2014-Oct-21 15:31N 53°44' E 006°15'  

Dump ship's entire track history